Create Custom Reports and Graphics: Custom Report

Soquel - CalFire

Current Conditions

1/18/20 4:00 AM (-08:00)
Updated Every 15 Minutes
Temp 38.9 °F   3.6
RH 88 %   8
Dew Pt 35.5 °F   1.5
Wind Spd 1.3 mph
Wind Dir ENE | 69 °
Wind Gust 2.1 mph   0.9
Latest Rain 0.00 In
Daily Rain 0.00 In
Leaf Wet 0.0 mins
Daily Min Temp 37.5 °F   2.4
Daily Max Temp 40.5 °F   2.8

Daily Summary

Last 30 Days

Daily Data | America/Los_Angeles
as of 1/18/20 8:08 PM PST
Date Daily Max Temp (°F) Daily Min Temp (°F) Daily Rain (In) Seasonal Rainfall (In) Daily Solar Rad (Cal/cm2) Daily ETo (in) Wind Spd (mph) Daily Max Wind (mph) Max Wind Dir (°) Dew Pt (°F) Max RH (%) Min RH (%) Leaf Wet (hrs) Soil Temp (°F) Soil Moist (%) Fuel Moisture (%) Max Fuel Moisture (%) Min Fuel Moisture (%) Bat Volt Min Day (V)
1/17/20 51.4 34.7 0.01 16.92 210 0.040 1.0 5.7 SW | 233 37.6 96 71 19.1 50.7 29.7 42 53 28 11.83
1/16/20 44.7 36.0 1.41 16.91 26 0.005 1.5 15.6 S | 176 37.5 95 74 19.7 50.9 29.9 40 51 21 11.89
1/15/20 52.6 35.2 0.00 15.50 178 0.035 1.1 6.8 SW | 214 35.7 91 55 8.1 51.0 27.8 22 29 15 11.98
1/14/20 53.5 39.1 0.04 15.50 210 0.040 1.3 8.8 SE | 137 38.1 94 51 10.6 51.0 27.9 29 43 18 12.04
1/13/20 52.9 37.9 0.06 15.46 191 0.038 0.9 8.5 SW | 214 40.8 95 63 10.9 51.2 27.8 30 44 20 11.98
1/12/20 54.5 36.4 0.00 15.40 214 0.041 1.2 11.0 SW | 236 36.1 92 48 13.6 51.2 27.6 20 26 10 11.96
1/11/20 55.9 39.1 0.01 15.40 213 0.043 1.4 9.6 W | 276 37.9 93 48 8.4 51.3 27.8 19 27 10 12.03
1/10/20 59.1 37.5 0.00 15.39 246 0.050 1.3 5.9 WSW | 257 36.5 87 42 0.9 51.4 27.8 21 28 9 11.91
1/9/20 52.4 39.7 0.12 15.39 134 0.026 2.1 15.7 NE | 41 39.1 94 58 10.4 51.5 27.8 29 43 19 11.99
1/8/20 56.6 41.4 0.00 15.27 184 0.037 1.0 7.5 WSW | 258 40.9 93 49 9.2 51.6 27.3 18 23 10 12.03
1/7/20 62.4 41.9 0.00 15.27 212 0.045 1.1 6.1 WSW | 246 36.6 88 32 2.7 51.7 27.4 13 17 5 12.04
1/6/20 61.3 43.2 0.00 15.27 241 0.049 1.9 12.8 NE | 48 34.3 72 29 0.0 51.8 27.6 13 17 6 12.02
1/5/20 57.3 41.0 0.00 15.27 243 0.048 2.5 12.4 NNE | 15 37.0 92 34 6.4 51.8 27.8 18 26 8 12.04
1/4/20 61.7 41.6 0.00 15.27 217 0.046 1.2 7.2 SE | 146 43.9 91 60 10.0 51.8 28.0 17 22 8 12.03
1/3/20 65.1 45.4 0.00 15.27 225 0.048 1.2 4.9 NW | 318 38.8 84 35 0.0 51.9 28.2 13 17 4 12.04
1/2/20 65.3 46.1 0.00 15.27 227 0.048 1.9 13.8 NNE | 13 35.8 86 18 0.4 52.0 28.5 15 22 5 12.02
1/1/20 63.2 44.1 0.00 15.27 192 0.042 1.5 15.2 SW | 217 43.5 88 59 0.5 52.1 28.8 17 21 10 12.02
12/31/19 60.6 43.8 0.00 15.27 225 0.046 2.2 14.8 NE | 50 37.4 85 32 0.0 52.2 29.1 20 29 10 11.98
12/30/19 58.2 41.9 0.01 15.27 233 0.046 1.4 13.8 N | 0 42.3 95 54 12.8 52.4 29.7 37 51 21 11.87
12/29/19 51.5 42.2 0.24 15.26 70 0.016 0.7 4.9 SW | 230 41.2 95 60 9.8 52.7 28.9 27 47 15 11.94
12/28/19 61.1 39.0 0.00 15.02 231 0.046 1.2 6.3 NNE | 29 33.5 82 31 0.0 53.0 28.6 16 22 8 11.98
12/27/19 55.6 37.0 0.00 15.02 227 0.042 1.7 13.3 NNW | 346 30.1 84 24 0.0 53.2 29.2 21 29 12 11.92
12/26/19 53.7 39.4 0.17 15.02 234 0.044 2.2 11.8 N | 354 36.6 94 38 9.5 53.5 30.6 35 49 20 11.78
12/25/19 46.6 40.6 0.50 14.85 85 0.018 1.5 15.5 NE | 45 40.1 95 76 18.5 53.7 29.3 43 48 35 11.81
12/24/19 48.2 36.8 0.05 14.35 102 0.021 0.8 6.8 WSW | 249 38.8 95 70 23.9 53.9 28.7 35 44 30 11.91
12/23/19 54.5 37.8 0.01 14.30 230 0.044 1.5 8.5 SE | 136 38.4 94 58 15.9 54.1 29.3 37 50 22 11.78
12/22/19 52.2 40.0 1.56 14.29 80 0.017 1.8 18.1 SW | 226 43.4 94 57 17.8 54.4 30.6 39 49 24 11.83
12/21/19 53.0 45.0 0.00 12.73 72 0.017 1.2 8.9 SSW | 200 43.2 93 60 5.5 54.7 28.4 25 28 22 11.91
12/20/19 61.1 44.3 0.00 12.73 189 0.040 1.1 7.4 WSW | 244 44.0 95 47 11.2 54.8 28.8 33 45 21 11.95
12/19/19 58.7 43.2 0.01 12.73 200 0.042 0.8 5.6 SW | 230 45.8 95 71 20.1 55.1 29.5 43 54 29 11.85
Max 65.3 46.1 1.56 - 246 0.050 2.5 18.1 - 45.8 96 76 23.9 55.1 30.6 43 54 35 12.04
Avg - - - - - - 1.4 - - 38.8 - - - 52.4 28.6 26 35 16 -
Min 44.7 34.7 0.00 - 26 0.005 0.7 4.9 - 30.1 72 18 0.0 50.7 27.3 13 17 4 11.78